createdAt,value
2023-04-25T00:05:06.359Z,3.45
2023-04-25T00:07:36.094Z,3.25
2023-04-25T00:10:04.789Z,3.75
2023-04-25T00:12:32.908Z,3.20
2023-04-25T00:15:01.102Z,3.85
2023-04-25T00:17:29.159Z,3.90
2023-04-25T00:19:57.101Z,4.28
2023-04-25T00:22:25.113Z,4.00
2023-04-25T00:24:54.577Z,3.83
2023-04-25T00:27:22.564Z,3.80
2023-04-25T00:29:51.122Z,3.17
2023-04-25T00:32:19.748Z,4.75
2023-04-25T00:34:48.936Z,4.30
2023-04-25T00:37:17.734Z,4.25
2023-04-25T00:39:45.545Z,5.10
2023-04-25T00:42:13.718Z,4.55
2023-04-25T00:44:41.709Z,4.90
2023-04-25T00:47:10.110Z,4.65
2023-04-25T00:49:38.030Z,5.20
2023-04-25T00:52:06.091Z,5.10
2023-04-25T00:54:33.794Z,4.82
2023-04-25T00:57:02.569Z,6.15
2023-04-25T00:59:31.989Z,5.38
2023-04-25T01:02:00.988Z,4.70
2023-04-25T01:04:30.165Z,5.88
2023-04-25T01:06:57.910Z,5.80
2023-04-25T01:09:26.036Z,5.75
2023-04-25T01:11:53.850Z,8.40
2023-04-25T01:14:21.569Z,5.63
2023-04-25T01:16:50.623Z,5.28
2023-04-25T01:19:19.491Z,5.15
2023-04-25T01:21:53.094Z,5.35
2023-04-25T01:24:21.204Z,5.13
2023-04-25T01:27:03.243Z,5.32
2023-04-25T01:29:31.686Z,5.35
2023-04-25T01:31:59.834Z,5.72
2023-04-25T01:34:28.210Z,5.25
2023-04-25T01:37:00.995Z,6.03
2023-04-25T01:39:30.318Z,5.65
2023-04-25T01:41:58.636Z,5.72
2023-04-25T01:44:27.140Z,6.13
2023-04-25T01:46:55.969Z,6.50
2023-04-25T01:49:23.906Z,6.50
2023-04-25T01:51:51.793Z,6.25
2023-04-25T01:54:20.433Z,6.20
2023-04-25T01:56:52.415Z,6.55
2023-04-25T01:59:23.025Z,5.68
2023-04-25T02:01:51.096Z,6.63
2023-04-25T02:04:28.816Z,6.82
2023-04-25T02:06:57.173Z,7.30
2023-04-25T02:09:30.911Z,6.43
2023-04-25T02:12:00.516Z,6.45
2023-04-25T02:14:54.082Z,6.65
2023-04-25T02:17:37.338Z,6.57
2023-04-25T02:20:05.740Z,6.32
2023-04-25T02:22:35.151Z,6.60
2023-04-25T02:25:03.483Z,6.68
2023-04-25T02:27:32.071Z,7.45
2023-04-25T02:29:59.897Z,5.82
2023-04-25T02:32:28.160Z,5.95
2023-04-25T02:34:56.762Z,7.10
2023-04-25T02:37:24.436Z,6.45
2023-04-25T02:39:52.051Z,6.88
2023-04-25T02:42:20.102Z,6.22
2023-04-25T02:44:49.738Z,6.25
2023-04-25T02:47:19.876Z,6.07
2023-04-25T02:49:51.414Z,5.40
2023-04-25T02:52:20.675Z,6.15
2023-04-25T02:54:55.457Z,5.50
2023-04-25T02:57:23.345Z,6.32
2023-04-25T02:59:51.014Z,6.15
2023-04-25T03:02:19.437Z,6.22
2023-04-25T03:04:50.170Z,6.13
2023-04-25T03:07:18.748Z,5.20
2023-04-25T03:09:49.975Z,5.05
2023-04-25T03:12:19.294Z,5.80
2023-04-25T03:14:48.600Z,6.90
2023-04-25T03:17:18.342Z,6.20
2023-04-25T03:19:46.017Z,6.05
2023-04-25T03:22:14.941Z,6.55
2023-04-25T03:24:42.979Z,6.25
2023-04-25T03:27:11.023Z,6.50
2023-04-25T03:29:38.921Z,6.45
2023-04-25T03:32:07.557Z,6.72
2023-04-25T03:34:35.394Z,6.07
2023-04-25T03:37:05.201Z,6.20
2023-04-25T03:39:39.915Z,6.97
2023-04-25T03:42:08.572Z,6.38
2023-04-25T03:44:39.598Z,6.72
2023-04-25T03:47:07.700Z,5.88
2023-04-25T03:49:36.718Z,7.45
2023-04-25T03:52:07.169Z,7.18
2023-04-25T03:54:39.519Z,7.57
2023-04-25T03:57:21.493Z,6.82
2023-04-25T03:59:49.809Z,6.55
2023-04-25T04:02:21.151Z,7.63
2023-04-25T04:04:50.142Z,8.13
2023-04-25T04:07:19.250Z,7.57
2023-04-25T04:09:49.865Z,7.28
2023-04-25T04:12:26.457Z,7.60
2023-04-25T04:14:56.237Z,8.43
2023-04-25T04:17:26.492Z,8.40
2023-04-25T04:19:54.423Z,9.02
2023-04-25T04:22:26.727Z,7.78
2023-04-25T04:24:58.313Z,7.70
2023-04-25T04:27:52.983Z,7.85
2023-04-25T04:30:42.481Z,8.02
2023-04-25T04:33:12.385Z,7.32
2023-04-25T04:35:43.334Z,7.05
2023-04-25T04:38:13.002Z,7.75
2023-04-25T04:40:40.646Z,7.07
2023-04-25T04:43:15.327Z,6.03
2023-04-25T04:46:05.322Z,7.40
2023-04-25T04:48:55.209Z,7.88
2023-04-25T04:51:59.672Z,7.50
2023-04-25T04:54:38.663Z,7.97
2023-04-25T04:57:19.112Z,7.97
2023-04-25T05:00:25.786Z,7.30
2023-04-25T05:03:18.918Z,7.15
2023-04-25T05:06:06.744Z,7.72
2023-04-25T05:09:01.298Z,7.53
2023-04-25T05:11:50.954Z,7.10
2023-04-25T05:14:48.511Z,7.25
2023-04-25T05:17:40.461Z,6.80
2023-04-25T05:20:27.811Z,7.85
2023-04-25T05:23:09.032Z,7.22
2023-04-25T05:25:59.269Z,8.43
2023-04-25T05:28:45.383Z,7.38
2023-04-25T05:31:25.064Z,6.73
2023-04-25T05:34:03.117Z,6.68
2023-04-25T05:36:42.844Z,6.13
2023-04-25T05:39:10.828Z,7.13
2023-04-25T05:42:08.010Z,5.93
2023-04-25T05:44:56.258Z,6.68
2023-04-25T05:47:33.553Z,5.75
2023-04-25T05:50:12.112Z,5.90
2023-04-25T05:53:00.433Z,5.15
2023-04-25T05:55:34.505Z,5.82
2023-04-25T05:58:09.215Z,5.57
2023-04-25T06:00:37.160Z,6.18
2023-04-25T06:03:05.506Z,4.85
2023-04-25T06:05:33.446Z,5.10
2023-04-25T06:08:01.502Z,4.55
2023-04-25T06:10:34.063Z,4.93
2023-04-25T06:13:01.655Z,4.03
2023-04-25T06:15:30.992Z,3.95
2023-04-25T06:17:59.188Z,4.53
2023-04-25T06:20:27.027Z,3.95
2023-04-25T06:22:57.672Z,3.30
2023-04-25T06:25:38.091Z,3.55
2023-04-25T06:28:06.307Z,3.58
2023-04-25T06:30:34.181Z,3.42
2023-04-25T06:33:10.071Z,3.95
2023-04-25T06:35:40.146Z,2.75
2023-04-25T06:38:11.533Z,3.08
2023-04-25T06:40:42.064Z,3.28
2023-04-25T06:43:11.193Z,2.58
2023-04-25T06:45:57.756Z,2.35
2023-04-25T06:48:30.900Z,2.90
2023-04-25T06:53:27.964Z,2.90
2023-04-25T06:56:00.952Z,2.40
2023-04-25T06:58:42.407Z,2.70
2023-04-25T07:01:14.795Z,2.75
2023-04-25T07:03:43.061Z,2.40
2023-04-25T07:06:22.809Z,3.10
2023-04-25T07:08:51.079Z,2.28
2023-04-25T07:11:20.831Z,2.75
2023-04-25T07:13:49.868Z,2.10
2023-04-25T07:16:18.822Z,2.17
2023-04-25T07:18:48.738Z,2.40
2023-04-25T07:21:17.427Z,2.60
2023-04-25T07:23:48.359Z,2.72
2023-04-25T07:26:20.640Z,2.47
2023-04-25T07:29:06.925Z,2.47
2023-04-25T07:31:37.810Z,2.25
2023-04-25T07:34:06.848Z,2.33
2023-04-25T07:36:35.000Z,2.30
2023-04-25T07:39:03.147Z,2.42
2023-04-25T07:41:33.587Z,3.60
2023-04-25T07:44:02.032Z,2.22
2023-04-25T07:46:32.000Z,2.55
2023-04-25T07:49:00.060Z,1.70
2023-04-25T07:51:27.722Z,2.63
2023-04-25T07:53:58.859Z,2.10
2023-04-25T07:56:27.008Z,2.30
2023-04-25T07:58:55.289Z,2.33
2023-04-25T08:01:26.178Z,2.10
2023-04-25T08:03:59.957Z,2.30
2023-04-25T08:06:35.715Z,2.20
2023-04-25T08:09:10.506Z,1.75
2023-04-25T08:11:41.460Z,2.03
2023-04-25T08:14:11.202Z,1.85
2023-04-25T08:16:40.161Z,1.60
2023-04-25T08:19:08.933Z,1.90
2023-04-25T08:21:36.907Z,2.05
2023-04-25T08:24:10.309Z,2.10
2023-04-25T08:26:40.976Z,1.42
2023-04-25T08:29:10.174Z,2.13
2023-04-25T08:31:41.076Z,1.80
2023-04-25T08:34:10.956Z,1.75
2023-04-25T08:36:47.211Z,1.70
2023-04-25T08:39:26.694Z,2.13
2023-04-25T08:42:22.138Z,2.05
2023-04-25T08:44:51.487Z,2.00
2023-04-25T08:47:22.995Z,1.88
2023-04-25T08:49:56.205Z,1.83
2023-04-25T08:52:27.983Z,1.70
2023-04-25T08:54:56.865Z,2.10
2023-04-25T08:57:27.116Z,1.90
2023-04-25T08:59:55.256Z,1.98
2023-04-25T09:02:27.504Z,1.25
2023-04-25T09:04:56.878Z,1.50
2023-04-25T09:07:27.825Z,1.77
2023-04-25T09:09:56.247Z,1.48
2023-04-25T09:12:25.185Z,1.63
2023-04-25T09:15:24.283Z,1.60
2023-04-25T09:18:00.281Z,1.70
2023-04-25T09:20:37.686Z,1.30
2023-04-25T09:23:08.426Z,1.50
2023-04-25T09:25:44.134Z,1.48
2023-04-25T09:28:13.453Z,1.38
2023-04-25T09:30:42.051Z,1.30
2023-04-25T09:33:19.536Z,1.17
2023-04-25T09:35:56.670Z,1.80
2023-04-25T09:38:44.605Z,1.50
2023-04-25T09:41:26.166Z,2.03
2023-04-25T09:44:00.371Z,1.30
2023-04-25T09:46:40.719Z,1.58
2023-04-25T09:49:17.286Z,1.60
2023-04-25T09:51:58.496Z,1.45
2023-04-25T09:54:30.874Z,1.58
2023-04-25T09:57:19.040Z,1.27
2023-04-25T09:59:55.577Z,1.55
2023-04-25T10:02:26.291Z,1.10
2023-04-25T10:04:58.291Z,0.98
2023-04-25T10:07:32.954Z,1.20
2023-04-25T10:10:04.972Z,1.52
2023-04-25T10:12:33.256Z,1.70
2023-04-25T10:15:01.642Z,2.13
2023-04-25T10:17:29.697Z,1.27
2023-04-25T10:19:57.983Z,1.52
2023-04-25T10:22:31.958Z,1.27
2023-04-25T10:25:00.410Z,1.15
2023-04-25T10:27:32.043Z,1.67
2023-04-25T10:30:05.639Z,1.10
2023-04-25T10:32:34.308Z,1.40
2023-04-25T10:35:12.871Z,1.23
2023-04-25T10:37:58.624Z,1.30
2023-04-25T10:40:27.186Z,1.30
2023-04-25T10:42:56.518Z,1.58
2023-04-25T10:45:28.176Z,0.90
2023-04-25T10:48:01.990Z,1.20
2023-04-25T10:50:40.989Z,1.38
2023-04-25T10:53:19.030Z,1.55
2023-04-25T10:55:56.751Z,1.40
2023-04-25T10:58:25.008Z,1.50
2023-04-25T11:00:57.589Z,2.08
2023-04-25T11:03:28.161Z,1.48
2023-04-25T11:05:58.783Z,1.88
2023-04-25T11:08:54.625Z,1.30
2023-04-25T11:11:22.610Z,1.17
2023-04-25T11:13:53.559Z,1.35
2023-04-25T11:16:27.306Z,1.88
2023-04-25T11:18:58.936Z,1.20
2023-04-25T11:21:30.064Z,1.25
2023-04-25T11:23:58.807Z,1.60
2023-04-25T11:26:27.574Z,1.48
2023-04-25T11:28:59.954Z,1.55
2023-04-25T11:31:28.085Z,1.88
2023-04-25T11:33:58.594Z,1.00
2023-04-25T11:38:56.536Z,1.08
2023-04-25T11:41:30.977Z,1.40
2023-04-25T11:43:59.034Z,1.38
2023-04-25T11:46:26.706Z,1.45
2023-04-25T11:48:57.662Z,1.10
2023-04-25T11:51:28.857Z,1.60
2023-04-25T11:53:56.841Z,1.17
2023-04-25T11:56:29.567Z,0.88
2023-04-25T11:59:03.988Z,1.52
2023-04-25T12:01:36.641Z,1.17
2023-04-25T12:04:21.797Z,1.52
2023-04-25T12:06:53.386Z,1.02
2023-04-25T12:09:25.678Z,1.30
2023-04-25T12:11:57.527Z,1.60
2023-04-25T12:14:26.413Z,1.00
2023-04-25T12:16:58.853Z,1.20
2023-04-25T12:19:28.149Z,1.25
2023-04-25T12:21:59.059Z,1.02
2023-04-25T12:24:29.342Z,1.40
2023-04-25T12:27:09.895Z,1.35
2023-04-25T12:32:19.731Z,1.30
2023-04-25T12:34:48.990Z,1.55
2023-04-25T12:37:20.774Z,1.05
2023-04-25T12:39:49.130Z,1.23
2023-04-25T12:42:17.853Z,1.05
2023-04-25T12:44:45.901Z,1.25
2023-04-25T12:47:13.933Z,1.17
2023-04-25T12:49:41.873Z,1.20
2023-04-25T12:52:09.618Z,1.25
2023-04-25T12:54:37.430Z,1.25
2023-04-25T12:57:06.374Z,1.33
2023-04-25T12:59:34.010Z,1.40
2023-04-25T13:02:05.299Z,1.40
2023-04-25T13:04:33.845Z,1.63
2023-04-25T13:07:07.367Z,1.20
2023-04-25T13:09:35.255Z,1.48
2023-04-25T13:12:03.915Z,0.90
2023-04-25T13:14:31.838Z,0.90
2023-04-25T13:17:00.489Z,1.08
2023-04-25T13:19:29.141Z,0.90
2023-04-25T13:21:57.928Z,1.17
2023-04-25T13:24:25.969Z,1.10
2023-04-25T13:26:54.337Z,1.02
2023-04-25T13:29:22.843Z,1.20
2023-04-25T13:31:50.581Z,1.00
2023-04-25T13:34:19.558Z,1.20
2023-04-25T13:36:48.761Z,1.17
2023-04-25T13:39:17.272Z,1.10
2023-04-25T13:41:45.358Z,1.10
2023-04-25T13:44:13.251Z,1.17
2023-04-25T13:46:46.902Z,0.90
2023-04-25T13:49:17.074Z,0.90
2023-04-25T13:51:45.975Z,1.00
2023-04-25T13:54:17.435Z,0.90
2023-04-25T13:56:45.794Z,1.73
2023-04-25T13:59:13.967Z,1.00
2023-04-25T14:01:42.879Z,0.98
2023-04-25T14:06:52.772Z,0.82
2023-04-25T14:09:26.676Z,1.23
2023-04-25T14:11:56.801Z,1.05
2023-04-25T14:14:25.261Z,2.30
2023-04-25T14:16:58.211Z,1.10
2023-04-25T14:19:26.656Z,0.95
2023-04-25T14:21:54.451Z,1.08
2023-04-25T14:24:22.253Z,0.75
2023-04-25T14:26:50.142Z,1.10
2023-04-25T14:29:21.592Z,1.00
2023-04-25T14:31:52.622Z,0.82
2023-04-25T14:34:23.074Z,0.88
2023-04-25T14:36:50.925Z,1.13
2023-04-25T14:39:20.293Z,0.80
2023-04-25T14:41:48.754Z,0.90
2023-04-25T14:44:17.101Z,1.10
2023-04-25T14:46:47.539Z,1.27
2023-04-25T14:51:45.812Z,1.00
2023-04-25T14:54:13.547Z,1.30
2023-04-25T14:56:41.443Z,1.50
2023-04-25T14:59:10.405Z,1.83
2023-04-25T15:01:38.308Z,1.77
2023-04-25T15:04:06.380Z,1.45
2023-04-25T15:06:35.030Z,1.10
2023-04-25T15:09:03.028Z,1.10
2023-04-25T15:11:31.407Z,1.58
2023-04-25T15:13:59.105Z,1.30
2023-04-25T15:16:28.526Z,1.42
2023-04-25T15:18:56.121Z,1.30
2023-04-25T15:21:23.986Z,1.60
2023-04-25T15:23:52.504Z,1.40
2023-04-25T15:26:20.640Z,1.25
2023-04-25T15:28:49.703Z,1.33
2023-04-25T15:31:18.840Z,1.10
2023-04-25T15:33:46.969Z,1.27
2023-04-25T15:36:19.037Z,1.30
2023-04-25T15:38:49.674Z,1.83
2023-04-25T15:41:20.870Z,2.05
2023-04-25T15:43:50.113Z,1.98
2023-04-25T15:46:20.276Z,1.73
2023-04-25T15:48:51.949Z,1.35
2023-04-25T15:51:19.877Z,1.40
2023-04-25T15:53:51.278Z,1.33
2023-04-25T15:56:19.622Z,1.30
2023-04-25T15:58:50.246Z,1.20
2023-04-25T16:01:18.615Z,1.08
2023-04-25T16:04:05.658Z,1.60
2023-04-25T16:06:34.963Z,1.33
2023-04-25T16:09:02.796Z,1.35
2023-04-25T16:11:30.682Z,1.58
2023-04-25T16:13:58.380Z,1.23
2023-04-25T16:16:26.578Z,1.85
2023-04-25T16:18:54.389Z,1.15
2023-04-25T16:21:22.191Z,1.23
2023-04-25T16:23:50.176Z,1.63
2023-04-25T16:26:18.345Z,1.70
2023-04-25T16:28:48.186Z,1.50
2023-04-25T16:31:17.383Z,1.27
2023-04-25T16:33:45.199Z,1.50
2023-04-25T16:36:13.729Z,1.10
2023-04-25T16:38:41.839Z,1.13
2023-04-25T16:41:13.637Z,1.63
2023-04-25T16:43:41.997Z,1.40
2023-04-25T16:46:10.048Z,1.63
2023-04-25T16:48:38.486Z,1.42
2023-04-25T16:51:06.387Z,1.30
2023-04-25T16:53:36.331Z,1.45
2023-04-25T16:56:08.601Z,1.75
2023-04-25T16:58:37.736Z,1.63
2023-04-25T17:01:07.283Z,2.03
2023-04-25T17:03:36.674Z,1.25
2023-04-25T17:06:04.615Z,1.80
2023-04-25T17:08:32.606Z,1.42
2023-04-25T17:11:00.760Z,1.65
2023-04-25T17:13:30.832Z,1.60
2023-04-25T17:16:00.087Z,1.70
2023-04-25T17:18:30.050Z,1.77
2023-04-25T17:20:57.798Z,1.70
2023-04-25T17:23:26.161Z,1.30
2023-04-25T17:25:54.335Z,1.48
2023-04-25T17:28:22.543Z,1.55
2023-04-25T17:30:50.226Z,1.77
2023-04-25T17:33:19.485Z,1.63
2023-04-25T17:35:48.087Z,1.60
2023-04-25T17:38:19.397Z,1.50
2023-04-25T17:40:49.108Z,1.83
2023-04-25T17:43:17.082Z,1.42
2023-04-25T17:45:45.055Z,1.67
2023-04-25T17:48:12.948Z,1.48
2023-04-25T17:50:40.660Z,1.52
2023-04-25T17:53:09.952Z,1.80
2023-04-25T17:55:38.049Z,1.80
2023-04-25T17:58:05.686Z,1.58
2023-04-25T18:00:33.932Z,1.67
2023-04-25T18:03:02.241Z,1.77
2023-04-25T18:05:31.207Z,1.10
2023-04-25T18:08:00.837Z,1.33
2023-04-25T18:10:28.696Z,1.92
2023-04-25T18:12:56.630Z,1.35
2023-04-25T18:15:25.114Z,1.60
2023-04-25T18:17:53.220Z,1.48
2023-04-25T18:20:22.431Z,1.40
2023-04-25T18:22:51.225Z,1.30
2023-04-25T18:25:19.952Z,1.38
2023-04-25T18:27:48.276Z,1.90
2023-04-25T18:30:17.431Z,1.80
2023-04-25T18:32:45.565Z,1.58
2023-04-25T18:35:14.498Z,1.60
2023-04-25T18:37:42.607Z,1.80
2023-04-25T18:40:14.202Z,1.80
2023-04-25T18:42:43.042Z,1.92
2023-04-25T18:45:11.233Z,1.70
2023-04-25T18:47:39.229Z,1.60
2023-04-25T18:50:08.331Z,1.88
2023-04-25T18:52:37.885Z,1.85
2023-04-25T18:55:06.044Z,1.60
2023-04-25T18:57:34.886Z,2.13
2023-04-25T19:00:05.516Z,2.50
2023-04-25T19:02:34.186Z,2.30
2023-04-25T19:05:03.267Z,2.58
2023-04-25T19:07:32.638Z,2.40
2023-04-25T19:10:00.638Z,2.45
2023-04-25T19:12:29.154Z,1.85
2023-04-25T19:14:59.232Z,1.73
2023-04-25T19:17:30.262Z,1.70
2023-04-25T19:19:58.279Z,2.15
2023-04-25T19:22:33.061Z,2.05
2023-04-25T19:25:10.549Z,1.77
2023-04-25T19:27:40.774Z,1.80
2023-04-25T19:30:10.304Z,1.90
2023-04-25T19:32:39.219Z,2.20
2023-04-25T19:35:11.417Z,2.00
2023-04-25T19:37:52.340Z,1.67
2023-04-25T19:40:23.338Z,1.92
2023-04-25T19:42:51.226Z,1.92
2023-04-25T19:45:19.282Z,1.75
2023-04-25T19:47:48.842Z,1.95
2023-04-25T19:50:17.597Z,2.13
2023-04-25T19:52:45.556Z,2.17
2023-04-25T19:55:14.831Z,2.20
2023-04-25T19:57:44.728Z,2.28
2023-04-25T20:00:14.522Z,2.10
2023-04-25T20:02:47.645Z,2.00
2023-04-25T20:05:20.737Z,2.28
2023-04-25T20:07:50.677Z,2.10
2023-04-25T20:10:20.022Z,1.70
2023-04-25T20:12:48.897Z,2.47
2023-04-25T20:15:18.980Z,2.30
2023-04-25T20:17:48.487Z,2.92
2023-04-25T20:20:19.428Z,2.90
2023-04-25T20:22:49.001Z,2.45
2023-04-25T20:25:17.280Z,3.20
2023-04-25T20:27:48.293Z,2.35
2023-04-25T20:30:20.787Z,2.65
2023-04-25T20:32:50.233Z,2.67
2023-04-25T20:35:18.550Z,3.05
2023-04-25T20:37:47.498Z,2.72
2023-04-25T20:40:17.415Z,2.45
2023-04-25T20:42:46.996Z,2.17
2023-04-25T20:45:18.617Z,2.90
2023-04-25T20:47:47.704Z,2.33
2023-04-25T20:50:18.617Z,3.28
2023-04-25T20:52:49.379Z,3.17
2023-04-25T20:55:18.840Z,2.95
2023-04-25T20:57:49.197Z,3.13
2023-04-25T21:00:18.910Z,2.80
2023-04-25T21:02:49.390Z,2.88
2023-04-25T21:07:46.346Z,2.63
2023-04-25T21:10:15.725Z,3.30
2023-04-25T21:12:50.195Z,3.30
2023-04-25T21:15:20.494Z,3.70
2023-04-25T21:17:49.919Z,3.10
2023-04-25T21:20:21.995Z,3.25
2023-04-25T21:22:54.271Z,3.55
2023-04-25T21:25:31.966Z,3.65
2023-04-25T21:28:00.217Z,3.90
2023-04-25T21:30:28.664Z,3.70
2023-04-25T21:32:56.986Z,3.05
2023-04-25T21:35:26.249Z,3.15
2023-04-25T21:37:54.257Z,3.90
2023-04-25T21:40:22.732Z,3.63
2023-04-25T21:42:52.017Z,3.78
2023-04-25T21:45:21.598Z,3.95
2023-04-25T21:47:51.295Z,3.90
2023-04-25T21:50:20.415Z,3.65
2023-04-25T21:52:52.046Z,3.50
2023-04-25T21:55:22.252Z,3.80
2023-04-25T21:57:52.257Z,3.03
2023-04-25T22:00:21.550Z,3.45
2023-04-25T22:02:49.910Z,3.17
2023-04-25T22:05:21.442Z,4.10
2023-04-25T22:07:51.230Z,4.72
2023-04-25T22:10:19.950Z,4.05
2023-04-25T22:12:51.137Z,3.80
2023-04-25T22:15:24.858Z,3.63
2023-04-25T22:17:54.125Z,3.90
2023-04-25T22:20:26.635Z,3.50
2023-04-25T22:22:59.860Z,3.50
2023-04-25T22:25:27.698Z,3.67
2023-04-25T22:27:55.953Z,3.97
2023-04-25T22:30:24.347Z,4.40
2023-04-25T22:32:52.771Z,3.95
2023-04-25T22:35:23.515Z,3.38
2023-04-25T22:37:52.613Z,3.83
2023-04-25T22:40:20.793Z,3.80
2023-04-25T22:42:49.758Z,3.67
2023-04-25T22:45:23.673Z,4.45
2023-04-25T22:47:51.929Z,4.45
2023-04-25T22:50:20.446Z,4.47
2023-04-25T22:52:49.660Z,3.95
2023-04-25T22:55:18.435Z,4.20
2023-04-25T22:57:48.031Z,4.22
2023-04-25T23:00:17.288Z,4.43
2023-04-25T23:02:48.845Z,6.57
2023-04-25T23:05:17.388Z,4.57
2023-04-25T23:07:45.543Z,4.85
2023-04-25T23:10:15.847Z,4.75
2023-04-25T23:12:44.592Z,4.63
2023-04-25T23:15:13.834Z,5.53
2023-04-25T23:17:42.550Z,4.45
2023-04-25T23:20:16.654Z,4.97
2023-04-25T23:22:45.599Z,4.47
2023-04-25T23:25:18.083Z,4.72
2023-04-25T23:27:47.394Z,4.00
2023-04-25T23:30:20.997Z,4.38
2023-04-25T23:32:50.820Z,4.88
2023-04-25T23:35:21.651Z,4.68
2023-04-25T23:37:52.582Z,5.15
2023-04-25T23:40:20.460Z,5.30
2023-04-25T23:42:48.858Z,5.72
2023-04-25T23:45:18.049Z,5.40
2023-04-25T23:47:47.532Z,5.28
2023-04-25T23:50:16.017Z,5.47
2023-04-25T23:52:45.327Z,5.90
2023-04-25T23:55:14.023Z,6.55
2023-04-25T23:57:44.593Z,5.55
